sensor_id;sensor_type;location;lat;lon;timestamp;pressure;altitude;pressure_sealevel;temperature;humidity
67840;BME280;54636;51.684;5.142;2023-03-26T00:02:18;100756.63;;;7.68;100.00
67840;BME280;54636;51.684;5.142;2023-03-26T00:04:43;100759.41;;;7.58;100.00
67840;BME280;54636;51.684;5.142;2023-03-26T00:07:10;100756.00;;;7.49;100.00
67840;BME280;54636;51.684;5.142;2023-03-26T00:09:36;100755.00;;;7.37;100.00
67840;BME280;54636;51.684;5.142;2023-03-26T00:12:02;100763.13;;;7.37;100.00
67840;BME280;54636;51.684;5.142;2023-03-26T00:14:28;100741.44;;;7.22;100.00
67840;BME280;54636;51.684;5.142;2023-03-26T00:16:54;100713.94;;;7.00;100.00
67840;BME280;54636;51.684;5.142;2023-03-26T00:19:19;100756.50;;;7.14;100.00
67840;BME280;54636;51.684;5.142;2023-03-26T00:21:46;100736.31;;;7.01;100.00
67840;BME280;54636;51.684;5.142;2023-03-26T00:24:13;100742.91;;;7.00;100.00
67840;BME280;54636;51.684;5.142;2023-03-26T00:26:42;100757.00;;;7.04;100.00
67840;BME280;54636;51.684;5.142;2023-03-26T00:29:08;100749.81;;;7.01;100.00
67840;BME280;54636;51.684;5.142;2023-03-26T00:31:36;100738.00;;;6.89;100.00
67840;BME280;54636;51.684;5.142;2023-03-26T00:34:10;100729.03;;;6.83;100.00
67840;BME280;54636;51.684;5.142;2023-03-26T00:36:36;100721.97;;;6.85;100.00
67840;BME280;54636;51.684;5.142;2023-03-26T00:39:02;100729.31;;;6.85;100.00
67840;BME280;54636;51.684;5.142;2023-03-26T00:41:29;100695.53;;;6.56;100.00
67840;BME280;54636;51.684;5.142;2023-03-26T00:43:57;100715.38;;;6.77;100.00
67840;BME280;54636;51.684;5.142;2023-03-26T00:46:24;100716.88;;;6.78;100.00
67840;BME280;54636;51.684;5.142;2023-03-26T00:48:50;100710.31;;;6.70;100.00
67840;BME280;54636;51.684;5.142;2023-03-26T00:51:17;100693.69;;;6.63;100.00
67840;BME280;54636;51.684;5.142;2023-03-26T00:53:44;100713.94;;;6.67;100.00
67840;BME280;54636;51.684;5.142;2023-03-26T00:56:10;100716.00;;;6.72;100.00
67840;BME280;54636;51.684;5.142;2023-03-26T00:58:36;100710.94;;;6.65;100.00
67840;BME280;54636;51.684;5.142;2023-03-26T01:01:04;100698.31;;;6.71;100.00
67840;BME280;54636;51.684;5.142;2023-03-26T01:03:32;100689.94;;;6.69;100.00
67840;BME280;54636;51.684;5.142;2023-03-26T01:06:03;100675.25;;;6.61;100.00
67840;BME280;54636;51.684;5.142;2023-03-26T01:08:45;100691.72;;;6.72;100.00
67840;BME280;54636;51.684;5.142;2023-03-26T01:11:20;100659.75;;;6.47;100.00
67840;BME280;54636;51.684;5.142;2023-03-26T01:13:53;100666.66;;;6.48;100.00
67840;BME280;54636;51.684;5.142;2023-03-26T01:16:29;100633.91;;;6.22;100.00
67840;BME280;54636;51.684;5.142;2023-03-26T01:18:56;100665.91;;;6.38;100.00
67840;BME280;54636;51.684;5.142;2023-03-26T01:21:24;100673.84;;;6.42;100.00
67840;BME280;54636;51.684;5.142;2023-03-26T01:24:03;100665.03;;;6.32;100.00
67840;BME280;54636;51.684;5.142;2023-03-26T01:26:52;100669.97;;;6.34;100.00
67840;BME280;54636;51.684;5.142;2023-03-26T01:29:35;100649.16;;;6.25;100.00
67840;BME280;54636;51.684;5.142;2023-03-26T01:32:30;100659.06;;;6.28;100.00
67840;BME280;54636;51.684;5.142;2023-03-26T01:38:22;100646.19;;;6.14;100.00
67840;BME280;54636;51.684;5.142;2023-03-26T01:41:03;100644.56;;;6.07;100.00
67840;BME280;54636;51.684;5.142;2023-03-26T01:46:21;100641.88;;;5.98;100.00
67840;BME280;54636;51.684;5.142;2023-03-26T01:48:48;100635.59;;;5.92;100.00
67840;BME280;54636;51.684;5.142;2023-03-26T01:51:28;100616.16;;;5.79;100.00
67840;BME280;54636;51.684;5.142;2023-03-26T01:53:54;100621.69;;;5.75;100.00
67840;BME280;54636;51.684;5.142;2023-03-26T01:59:27;100617.97;;;5.73;100.00
67840;BME280;54636;51.684;5.142;2023-03-26T02:02:16;100601.81;;;5.54;100.00
67840;BME280;54636;51.684;5.142;2023-03-26T02:07:26;100605.69;;;5.62;100.00
67840;BME280;54636;51.684;5.142;2023-03-26T02:10:03;100604.94;;;5.62;100.00
67840;BME280;54636;51.684;5.142;2023-03-26T02:12:31;100603.59;;;5.57;100.00
67840;BME280;54636;51.684;5.142;2023-03-26T02:15:01;100570.81;;;5.41;100.00
67840;BME280;54636;51.684;5.142;2023-03-26T02:17:27;100591.03;;;5.54;100.00
67840;BME280;54636;51.684;5.142;2023-03-26T02:19:55;100591.63;;;5.49;100.00
67840;BME280;54636;51.684;5.142;2023-03-26T02:22:21;100561.84;;;5.35;100.00
67840;BME280;54636;51.684;5.142;2023-03-26T02:24:47;100580.25;;;5.45;100.00
67840;BME280;54636;51.684;5.142;2023-03-26T02:27:13;100573.38;;;5.35;100.00
67840;BME280;54636;51.684;5.142;2023-03-26T02:29:42;100575.47;;;5.40;100.00
67840;BME280;54636;51.684;5.142;2023-03-26T02:32:09;100580.41;;;5.42;100.00
67840;BME280;54636;51.684;5.142;2023-03-26T02:34:41;100575.63;;;5.37;100.00
67840;BME280;54636;51.684;5.142;2023-03-26T02:37:07;100572.31;;;5.33;100.00
67840;BME280;54636;51.684;5.142;2023-03-26T02:39:33;100575.03;;;5.42;100.00
67840;BME280;54636;51.684;5.142;2023-03-26T02:41:59;100569.47;;;5.45;100.00
67840;BME280;54636;51.684;5.142;2023-03-26T02:44:24;100561.41;;;5.45;100.00
67840;BME280;54636;51.684;5.142;2023-03-26T02:46:49;100544.34;;;5.39;100.00
67840;BME280;54636;51.684;5.142;2023-03-26T02:49:15;100551.22;;;5.49;100.00
67840;BME280;54636;51.684;5.142;2023-03-26T02:51:40;100531.31;;;5.47;100.00
67840;BME280;54636;51.684;5.142;2023-03-26T02:54:06;100547.75;;;5.67;100.00
67840;BME280;54636;51.684;5.142;2023-03-26T02:56:31;100537.59;;;5.62;100.00
67840;BME280;54636;51.684;5.142;2023-03-26T02:58:56;100527.25;;;5.60;100.00
67840;BME280;54636;51.684;5.142;2023-03-26T03:01:22;100511.09;;;5.51;100.00
67840;BME280;54636;51.684;5.142;2023-03-26T03:03:47;100529.03;;;5.73;100.00
67840;BME280;54636;51.684;5.142;2023-03-26T03:06:14;100532.16;;;5.80;100.00
67840;BME280;54636;51.684;5.142;2023-03-26T03:08:41;100509.41;;;5.72;100.00
67840;BME280;54636;51.684;5.142;2023-03-26T03:13:33;100515.50;;;5.91;100.00
67840;BME280;54636;51.684;5.142;2023-03-26T03:15:59;100522.97;;;5.96;100.00
67840;BME280;54636;51.684;5.142;2023-03-26T03:18:24;100503.34;;;5.86;100.00
67840;BME280;54636;51.684;5.142;2023-03-26T03:20:49;100514.13;;;5.95;100.00
67840;BME280;54636;51.684;5.142;2023-03-26T03:23:15;100483.66;;;5.80;100.00
67840;BME280;54636;51.684;5.142;2023-03-26T03:25:41;100497.94;;;6.05;100.00
67840;BME280;54636;51.684;5.142;2023-03-26T03:28:07;100491.38;;;5.97;100.00
67840;BME280;54636;51.684;5.142;2023-03-26T03:30:33;100493.56;;;6.07;100.00
67840;BME280;54636;51.684;5.142;2023-03-26T03:32:58;100472.50;;;5.97;100.00
67840;BME280;54636;51.684;5.142;2023-03-26T03:35:24;100474.13;;;6.03;100.00
67840;BME280;54636;51.684;5.142;2023-03-26T03:37:51;100481.59;;;6.08;100.00
67840;BME280;54636;51.684;5.142;2023-03-26T03:40:17;100493.06;;;6.18;100.00
67840;BME280;54636;51.684;5.142;2023-03-26T03:42:43;100490.22;;;6.21;100.00
67840;BME280;54636;51.684;5.142;2023-03-26T03:45:09;100484.38;;;6.23;100.00
67840;BME280;54636;51.684;5.142;2023-03-26T03:47:35;100482.69;;;6.25;100.00
67840;BME280;54636;51.684;5.142;2023-03-26T03:50:01;100484.31;;;6.32;100.00
67840;BME280;54636;51.684;5.142;2023-03-26T03:52:26;100476.50;;;6.34;100.00
67840;BME280;54636;51.684;5.142;2023-03-26T03:54:53;100457.50;;;6.28;100.00
67840;BME280;54636;51.684;5.142;2023-03-26T03:57:18;100484.09;;;6.45;100.00
67840;BME280;54636;51.684;5.142;2023-03-26T03:59:46;100470.44;;;6.48;100.00
67840;BME280;54636;51.684;5.142;2023-03-26T04:02:11;100456.38;;;6.44;100.00
67840;BME280;54636;51.684;5.142;2023-03-26T04:04:37;100466.16;;;6.56;100.00
67840;BME280;54636;51.684;5.142;2023-03-26T04:07:04;100457.78;;;6.54;100.00
67840;BME280;54636;51.684;5.142;2023-03-26T04:09:30;100399.72;;;6.20;100.00
67840;BME280;54636;51.684;5.142;2023-03-26T04:11:55;100439.34;;;6.53;100.00
67840;BME280;54636;51.684;5.142;2023-03-26T04:14:21;100418.22;;;6.51;100.00
67840;BME280;54636;51.684;5.142;2023-03-26T04:16:46;100422.41;;;6.52;100.00
67840;BME280;54636;51.684;5.142;2023-03-26T04:19:13;100437.63;;;6.65;100.00
67840;BME280;54636;51.684;5.142;2023-03-26T04:21:39;100408.63;;;6.50;100.00
67840;BME280;54636;51.684;5.142;2023-03-26T04:24:07;100415.00;;;6.62;100.00
67840;BME280;54636;51.684;5.142;2023-03-26T04:26:33;100419.19;;;6.63;100.00
67840;BME280;54636;51.684;5.142;2023-03-26T04:29:02;100393.69;;;6.49;100.00
67840;BME280;54636;51.684;5.142;2023-03-26T04:31:29;100411.44;;;6.56;100.00
67840;BME280;54636;51.684;5.142;2023-03-26T04:34:07;100394.88;;;6.48;100.00
67840;BME280;54636;51.684;5.142;2023-03-26T04:36:37;100389.75;;;6.50;100.00
67840;BME280;54636;51.684;5.142;2023-03-26T04:39:09;100407.06;;;6.58;100.00
67840;BME280;54636;51.684;5.142;2023-03-26T04:41:35;100382.59;;;6.47;100.00
67840;BME280;54636;51.684;5.142;2023-03-26T04:44:01;100398.53;;;6.60;100.00
67840;BME280;54636;51.684;5.142;2023-03-26T04:46:26;100377.97;;;6.48;100.00
67840;BME280;54636;51.684;5.142;2023-03-26T04:48:53;100394.22;;;6.53;100.00
67840;BME280;54636;51.684;5.142;2023-03-26T04:51:23;100379.34;;;6.58;100.00
67840;BME280;54636;51.684;5.142;2023-03-26T04:53:54;100354.13;;;6.46;100.00
67840;BME280;54636;51.684;5.142;2023-03-26T04:59:00;100371.06;;;6.61;100.00
67840;BME280;54636;51.684;5.142;2023-03-26T05:01:26;100363.44;;;6.60;100.00
67840;BME280;54636;51.684;5.142;2023-03-26T05:03:56;100355.34;;;6.60;100.00
67840;BME280;54636;51.684;5.142;2023-03-26T05:06:25;100342.78;;;6.57;100.00
67840;BME280;54636;51.684;5.142;2023-03-26T05:08:53;100359.06;;;6.63;100.00
67840;BME280;54636;51.684;5.142;2023-03-26T05:11:19;100355.44;;;6.66;100.00
67840;BME280;54636;51.684;5.142;2023-03-26T05:13:45;100349.75;;;6.64;100.00
67840;BME280;54636;51.684;5.142;2023-03-26T05:16:11;100332.72;;;6.57;100.00
67840;BME280;54636;51.684;5.142;2023-03-26T05:18:37;100335.34;;;6.67;100.00
67840;BME280;54636;51.684;5.142;2023-03-26T05:21:02;100318.59;;;6.63;100.00
67840;BME280;54636;51.684;5.142;2023-03-26T05:23:28;100312.34;;;6.56;100.00
67840;BME280;54636;51.684;5.142;2023-03-26T05:25:53;100309.84;;;6.53;100.00
67840;BME280;54636;51.684;5.142;2023-03-26T05:28:19;100329.47;;;6.68;100.00
67840;BME280;54636;51.684;5.142;2023-03-26T05:30:47;100321.09;;;6.66;100.00
67840;BME280;54636;51.684;5.142;2023-03-26T05:33:12;100289.09;;;6.44;100.00
67840;BME280;54636;51.684;5.142;2023-03-26T05:35:38;100314.31;;;6.71;100.00
67840;BME280;54636;51.684;5.142;2023-03-26T05:38:03;100315.53;;;6.70;100.00
67840;BME280;54636;51.684;5.142;2023-03-26T05:40:29;100291.97;;;6.55;100.00
67840;BME280;54636;51.684;5.142;2023-03-26T05:42:54;100304.16;;;6.66;100.00
67840;BME280;54636;51.684;5.142;2023-03-26T05:45:19;100305.84;;;6.78;100.00
67840;BME280;54636;51.684;5.142;2023-03-26T05:47:46;100308.28;;;6.76;100.00
67840;BME280;54636;51.684;5.142;2023-03-26T05:50:14;100298.41;;;6.73;100.00
67840;BME280;54636;51.684;5.142;2023-03-26T05:52:39;100312.72;;;6.79;100.00
67840;BME280;54636;51.684;5.142;2023-03-26T05:55:05;100306.31;;;6.76;100.00
67840;BME280;54636;51.684;5.142;2023-03-26T05:57:32;100286.22;;;6.63;100.00
67840;BME280;54636;51.684;5.142;2023-03-26T06:00:00;100276.53;;;6.56;100.00
67840;BME280;54636;51.684;5.142;2023-03-26T06:02:25;100296.91;;;6.72;100.00
67840;BME280;54636;51.684;5.142;2023-03-26T06:04:51;100299.63;;;6.72;100.00
67840;BME280;54636;51.684;5.142;2023-03-26T06:07:17;100299.16;;;6.73;100.00
67840;BME280;54636;51.684;5.142;2023-03-26T06:09:43;100277.84;;;6.60;100.00
67840;BME280;54636;51.684;5.142;2023-03-26T06:12:09;100291.06;;;6.73;100.00
67840;BME280;54636;51.684;5.142;2023-03-26T06:14:36;100290.31;;;6.73;100.00
67840;BME280;54636;51.684;5.142;2023-03-26T06:17:02;100274.38;;;6.60;100.00
67840;BME280;54636;51.684;5.142;2023-03-26T06:19:27;100286.69;;;6.76;100.00
67840;BME280;54636;51.684;5.142;2023-03-26T06:21:53;100243.34;;;6.50;100.00
67840;BME280;54636;51.684;5.142;2023-03-26T06:24:18;100279.97;;;6.71;100.00
67840;BME280;54636;51.684;5.142;2023-03-26T06:26:44;100241.34;;;6.50;100.00
67840;BME280;54636;51.684;5.142;2023-03-26T06:29:11;100244.16;;;6.56;100.00
67840;BME280;54636;51.684;5.142;2023-03-26T06:31:36;100242.28;;;6.62;100.00
67840;BME280;54636;51.684;5.142;2023-03-26T06:34:01;100257.16;;;6.72;100.00
67840;BME280;54636;51.684;5.142;2023-03-26T06:36:27;100260.16;;;6.74;100.00
67840;BME280;54636;51.684;5.142;2023-03-26T06:38:52;100267.13;;;6.81;100.00
67840;BME280;54636;51.684;5.142;2023-03-26T06:41:18;100259.03;;;6.81;100.00
67840;BME280;54636;51.684;5.142;2023-03-26T06:43:43;100257.91;;;6.87;100.00
67840;BME280;54636;51.684;5.142;2023-03-26T06:46:09;100263.41;;;6.93;100.00
67840;BME280;54636;51.684;5.142;2023-03-26T06:48:35;100264.69;;;6.98;100.00
67840;BME280;54636;51.684;5.142;2023-03-26T06:51:00;100242.25;;;6.91;100.00
67840;BME280;54636;51.684;5.142;2023-03-26T06:53:25;100265.41;;;7.13;100.00
67840;BME280;54636;51.684;5.142;2023-03-26T06:55:52;100274.03;;;7.17;100.00
67840;BME280;54636;51.684;5.142;2023-03-26T06:58:19;100254.31;;;7.11;100.00
67840;BME280;54636;51.684;5.142;2023-03-26T07:00:45;100269.47;;;7.23;100.00
67840;BME280;54636;51.684;5.142;2023-03-26T07:03:11;100265.81;;;7.26;100.00
67840;BME280;54636;51.684;5.142;2023-03-26T07:05:39;100263.84;;;7.26;100.00
67840;BME280;54636;51.684;5.142;2023-03-26T07:08:05;100245.34;;;7.19;100.00
67840;BME280;54636;51.684;5.142;2023-03-26T07:10:30;100258.53;;;7.32;100.00
67840;BME280;54636;51.684;5.142;2023-03-26T07:12:56;100258.81;;;7.34;100.00
67840;BME280;54636;51.684;5.142;2023-03-26T07:15:21;100249.00;;;7.37;100.00
67840;BME280;54636;51.684;5.142;2023-03-26T07:17:47;100249.09;;;7.42;100.00
67840;BME280;54636;51.684;5.142;2023-03-26T07:20:12;100252.13;;;7.50;100.00
67840;BME280;54636;51.684;5.142;2023-03-26T07:22:38;100255.72;;;7.62;100.00
67840;BME280;54636;51.684;5.142;2023-03-26T07:25:04;100211.31;;;7.27;100.00
67840;BME280;54636;51.684;5.142;2023-03-26T07:30:20;100250.13;;;7.65;100.00
67840;BME280;54636;51.684;5.142;2023-03-26T07:32:54;100250.72;;;7.54;100.00
67840;BME280;54636;51.684;5.142;2023-03-26T07:35:40;100243.63;;;7.57;100.00
67840;BME280;54636;51.684;5.142;2023-03-26T07:40:57;100240.44;;;7.58;100.00
67840;BME280;54636;51.684;5.142;2023-03-26T07:45:58;100224.97;;;7.59;100.00
67840;BME280;54636;51.684;5.142;2023-03-26T07:48:26;100244.03;;;7.70;100.00
67840;BME280;54636;51.684;5.142;2023-03-26T07:50:52;100241.88;;;7.74;100.00
67840;BME280;54636;51.684;5.142;2023-03-26T07:53:19;100219.25;;;7.51;100.00
67840;BME280;54636;51.684;5.142;2023-03-26T08:01:08;100243.16;;;7.79;100.00
67840;BME280;54636;51.684;5.142;2023-03-26T08:06:19;100228.34;;;7.74;100.00
67840;BME280;54636;51.684;5.142;2023-03-26T08:09:41;100232.09;;;7.82;100.00
67840;BME280;54636;51.684;5.142;2023-03-26T08:17:51;100231.75;;;7.95;100.00
67840;BME280;54636;51.684;5.142;2023-03-26T08:23:01;100225.66;;;8.00;100.00
67840;BME280;54636;51.684;5.142;2023-03-26T08:25:38;100234.38;;;8.10;100.00
67840;BME280;54636;51.684;5.142;2023-03-26T08:31:02;100235.44;;;8.18;100.00
67840;BME280;54636;51.684;5.142;2023-03-26T08:33:29;100224.13;;;8.19;100.00
67840;BME280;54636;51.684;5.142;2023-03-26T08:35:54;100228.97;;;8.10;100.00
67840;BME280;54636;51.684;5.142;2023-03-26T08:38:21;100230.56;;;8.22;100.00
67840;BME280;54636;51.684;5.142;2023-03-26T08:41:15;100232.78;;;8.23;100.00
67840;BME280;54636;51.684;5.142;2023-03-26T09:03:20;100221.44;;;8.19;100.00
67840;BME280;54636;51.684;5.142;2023-03-26T09:11:34;100232.50;;;8.47;100.00
67840;BME280;54636;51.684;5.142;2023-03-26T09:20:01;100223.97;;;8.54;100.00
67840;BME280;54636;51.684;5.142;2023-03-26T09:39:15;100228.78;;;9.08;100.00
67840;BME280;54636;51.684;5.142;2023-03-26T09:44:47;100230.56;;;9.22;100.00
67840;BME280;54636;51.684;5.142;2023-03-26T09:52:43;100231.59;;;9.30;100.00
67840;BME280;54636;51.684;5.142;2023-03-26T09:55:34;100227.66;;;9.31;100.00
67840;BME280;54636;51.684;5.142;2023-03-26T09:58:19;100215.25;;;9.13;100.00
67840;BME280;54636;51.684;5.142;2023-03-26T10:03:48;100234.53;;;9.27;100.00
67840;BME280;54636;51.684;5.142;2023-03-26T10:09:28;100238.91;;;9.18;100.00
67840;BME280;54636;51.684;5.142;2023-03-26T10:12:24;100233.75;;;9.20;100.00
67840;BME280;54636;51.684;5.142;2023-03-26T10:23:31;100236.97;;;9.24;100.00
67840;BME280;54636;51.684;5.142;2023-03-26T10:31:23;100251.19;;;9.56;100.00
67840;BME280;54636;51.684;5.142;2023-03-26T10:49:40;100258.03;;;10.17;100.00
67840;BME280;54636;51.684;5.142;2023-03-26T10:52:16;100257.81;;;10.20;100.00
67840;BME280;54636;51.684;5.142;2023-03-26T11:00:19;100270.78;;;9.88;100.00
67840;BME280;54636;51.684;5.142;2023-03-26T11:05:50;100272.69;;;9.66;100.00
67840;BME280;54636;51.684;5.142;2023-03-26T11:08:34;100272.31;;;9.41;100.00
67840;BME280;54636;51.684;5.142;2023-03-26T11:11:18;100275.63;;;9.19;100.00
67840;BME280;54636;51.684;5.142;2023-03-26T11:17:09;100280.75;;;9.06;100.00
67840;BME280;54636;51.684;5.142;2023-03-26T11:30:53;100288.47;;;8.87;100.00
67840;BME280;54636;51.684;5.142;2023-03-26T11:33:31;100294.59;;;8.82;100.00
67840;BME280;54636;51.684;5.142;2023-03-26T11:36:06;100290.47;;;8.93;100.00
67840;BME280;54636;51.684;5.142;2023-03-26T11:38:41;100294.72;;;8.99;100.00
67840;BME280;54636;51.684;5.142;2023-03-26T11:41:14;100287.78;;;8.93;100.00
67840;BME280;54636;51.684;5.142;2023-03-26T11:43:44;100292.19;;;8.90;100.00
67840;BME280;54636;51.684;5.142;2023-03-26T11:46:17;100295.06;;;8.81;100.00
67840;BME280;54636;51.684;5.142;2023-03-26T11:48:47;100293.78;;;8.76;100.00
67840;BME280;54636;51.684;5.142;2023-03-26T11:51:30;100294.81;;;8.79;100.00
67840;BME280;54636;51.684;5.142;2023-03-26T11:54:00;100302.94;;;8.79;100.00
67840;BME280;54636;51.684;5.142;2023-03-26T11:56:39;100295.91;;;8.93;100.00
67840;BME280;54636;51.684;5.142;2023-03-26T12:04:36;100302.31;;;8.95;100.00
67840;BME280;54636;51.684;5.142;2023-03-26T12:07:31;100299.41;;;8.99;100.00
67840;BME280;54636;51.684;5.142;2023-03-26T12:10:03;100305.66;;;9.16;100.00
67840;BME280;54636;51.684;5.142;2023-03-26T12:12:37;100294.72;;;8.99;100.00
67840;BME280;54636;51.684;5.142;2023-03-26T12:15:04;100311.25;;;9.01;100.00
67840;BME280;54636;51.684;5.142;2023-03-26T12:17:38;100306.34;;;9.05;100.00
67840;BME280;54636;51.684;5.142;2023-03-26T12:22:52;100317.69;;;9.46;100.00
67840;BME280;54636;51.684;5.142;2023-03-26T12:25:24;100296.38;;;9.28;100.00
67840;BME280;54636;51.684;5.142;2023-03-26T12:30:35;100314.72;;;9.07;100.00
67840;BME280;54636;51.684;5.142;2023-03-26T12:33:04;100300.06;;;8.88;100.00
67840;BME280;54636;51.684;5.142;2023-03-26T12:35:33;100306.81;;;8.72;100.00
67840;BME280;54636;51.684;5.142;2023-03-26T12:40:47;100326.94;;;8.66;100.00
67840;BME280;54636;51.684;5.142;2023-03-26T12:43:28;100334.69;;;8.52;100.00
67840;BME280;54636;51.684;5.142;2023-03-26T12:45:55;100331.22;;;8.52;100.00
67840;BME280;54636;51.684;5.142;2023-03-26T12:48:23;100333.94;;;8.52;100.00
67840;BME280;54636;51.684;5.142;2023-03-26T12:57:18;100351.41;;;8.51;100.00
67840;BME280;54636;51.684;5.142;2023-03-26T13:11:16;100355.00;;;8.22;100.00
67840;BME280;54636;51.684;5.142;2023-03-26T13:16:34;100362.03;;;8.14;100.00
67840;BME280;54636;51.684;5.142;2023-03-26T13:19:20;100371.31;;;8.07;100.00
67840;BME280;54636;51.684;5.142;2023-03-26T13:22:01;100373.00;;;8.05;100.00
67840;BME280;54636;51.684;5.142;2023-03-26T13:27:58;100377.94;;;8.26;100.00
67840;BME280;54636;51.684;5.142;2023-03-26T13:30:49;100383.88;;;8.31;100.00
67840;BME280;54636;51.684;5.142;2023-03-26T13:33:34;100362.38;;;8.01;100.00
67840;BME280;54636;51.684;5.142;2023-03-26T13:41:49;100404.16;;;7.80;100.00
67840;BME280;54636;51.684;5.142;2023-03-26T13:44:34;100383.88;;;7.55;100.00
67840;BME280;54636;51.684;5.142;2023-03-26T13:47:02;100409.22;;;7.57;100.00
67840;BME280;54636;51.684;5.142;2023-03-26T13:49:48;100402.09;;;7.40;100.00
67840;BME280;54636;51.684;5.142;2023-03-26T13:52:50;100412.41;;;7.56;100.00
67840;BME280;54636;51.684;5.142;2023-03-26T13:55:35;100422.38;;;7.65;100.00
67840;BME280;54636;51.684;5.142;2023-03-26T13:58:14;100424.88;;;7.68;100.00
67840;BME280;54636;51.684;5.142;2023-03-26T14:00:58;100429.72;;;7.64;100.00
67840;BME280;54636;51.684;5.142;2023-03-26T14:03:40;100429.91;;;7.75;100.00
67840;BME280;54636;51.684;5.142;2023-03-26T14:08:57;100404.97;;;7.51;100.00
67840;BME280;54636;51.684;5.142;2023-03-26T14:14:45;100430.09;;;7.57;100.00
67840;BME280;54636;51.684;5.142;2023-03-26T14:17:24;100454.81;;;7.65;100.00
67840;BME280;54636;51.684;5.142;2023-03-26T14:23:21;100457.22;;;7.63;100.00
67840;BME280;54636;51.684;5.142;2023-03-26T14:40:00;100446.06;;;7.55;100.00
67840;BME280;54636;51.684;5.142;2023-03-26T14:51:11;100500.53;;;7.83;100.00
67840;BME280;54636;51.684;5.142;2023-03-26T14:53:48;100491.19;;;7.84;100.00
67840;BME280;54636;51.684;5.142;2023-03-26T15:10:06;100501.34;;;8.04;100.00
67840;BME280;54636;51.684;5.142;2023-03-26T15:31:59;100557.66;;;8.20;100.00
67840;BME280;54636;51.684;5.142;2023-03-26T15:40:28;100575.94;;;7.96;98.50
67840;BME280;54636;51.684;5.142;2023-03-26T15:45:38;100594.41;;;7.82;98.65
67840;BME280;54636;51.684;5.142;2023-03-26T15:50:45;100605.88;;;7.92;98.69
67840;BME280;54636;51.684;5.142;2023-03-26T15:58:46;100611.09;;;8.10;96.78
67840;BME280;54636;51.684;5.142;2023-03-26T16:01:27;100612.41;;;8.15;96.41
67840;BME280;54636;51.684;5.142;2023-03-26T16:06:55;100632.28;;;8.12;94.64
67840;BME280;54636;51.684;5.142;2023-03-26T16:09:39;100632.66;;;8.05;94.17
67840;BME280;54636;51.684;5.142;2023-03-26T16:14:44;100648.22;;;8.10;92.18
67840;BME280;54636;51.684;5.142;2023-03-26T16:17:21;100653.38;;;8.08;93.09
67840;BME280;54636;51.684;5.142;2023-03-26T16:27:42;100667.63;;;7.79;89.36
67840;BME280;54636;51.684;5.142;2023-03-26T16:30:28;100670.97;;;7.74;89.02
67840;BME280;54636;51.684;5.142;2023-03-26T16:33:15;100697.38;;;7.93;86.97
67840;BME280;54636;51.684;5.142;2023-03-26T16:38:15;100707.63;;;7.75;89.64
67840;BME280;54636;51.684;5.142;2023-03-26T16:40:59;100707.16;;;7.76;90.22
67840;BME280;54636;51.684;5.142;2023-03-26T16:48:53;100735.06;;;7.58;88.80
67840;BME280;54636;51.684;5.142;2023-03-26T16:56:51;100756.91;;;7.46;84.98
67840;BME280;54636;51.684;5.142;2023-03-26T16:59:41;100756.78;;;7.40;85.35
67840;BME280;54636;51.684;5.142;2023-03-26T17:02:34;100765.19;;;7.42;83.78
67840;BME280;54636;51.684;5.142;2023-03-26T17:07:56;100776.34;;;7.35;83.78
67840;BME280;54636;51.684;5.142;2023-03-26T17:10:41;100785.78;;;7.40;83.75
67840;BME280;54636;51.684;5.142;2023-03-26T17:13:23;100762.47;;;7.18;84.61
67840;BME280;54636;51.684;5.142;2023-03-26T17:15:58;100795.84;;;7.39;83.13
67840;BME280;54636;51.684;5.142;2023-03-26T17:21:19;100800.69;;;7.26;81.82
67840;BME280;54636;51.684;5.142;2023-03-26T17:32:13;100848.06;;;7.03;81.64
67840;BME280;54636;51.684;5.142;2023-03-26T17:42:28;100862.50;;;6.91;78.56
67840;BME280;54636;51.684;5.142;2023-03-26T17:45:19;100860.84;;;6.84;79.57
67840;BME280;54636;51.684;5.142;2023-03-26T17:47:52;100873.91;;;6.77;78.42
67840;BME280;54636;51.684;5.142;2023-03-26T17:50:33;100888.16;;;6.68;78.21
67840;BME280;54636;51.684;5.142;2023-03-26T17:53:28;100866.31;;;6.48;79.09
67840;BME280;54636;51.684;5.142;2023-03-26T17:56:01;100890.41;;;6.60;77.40
67840;BME280;54636;51.684;5.142;2023-03-26T17:58:35;100902.72;;;6.71;79.38
67840;BME280;54636;51.684;5.142;2023-03-26T18:01:06;100891.75;;;6.56;73.12
67840;BME280;54636;51.684;5.142;2023-03-26T18:04:00;100896.59;;;6.43;75.71
67840;BME280;54636;51.684;5.142;2023-03-26T18:06:46;100912.63;;;6.46;75.24
67840;BME280;54636;51.684;5.142;2023-03-26T18:14:39;100951.56;;;6.27;76.74
67840;BME280;54636;51.684;5.142;2023-03-26T18:17:10;100932.22;;;6.19;77.84
67840;BME280;54636;51.684;5.142;2023-03-26T18:20:05;100951.41;;;6.21;77.99
67840;BME280;54636;51.684;5.142;2023-03-26T18:22:32;100958.44;;;6.19;79.32
67840;BME280;54636;51.684;5.142;2023-03-26T18:25:01;100964.28;;;6.17;79.03
67840;BME280;54636;51.684;5.142;2023-03-26T18:27:39;100968.00;;;6.11;79.62
67840;BME280;54636;51.684;5.142;2023-03-26T18:32:46;100958.66;;;5.93;80.14
67840;BME280;54636;51.684;5.142;2023-03-26T18:35:20;100971.53;;;5.89;79.88
67840;BME280;54636;51.684;5.142;2023-03-26T18:37:48;100979.78;;;5.95;80.15
67840;BME280;54636;51.684;5.142;2023-03-26T18:40:22;100991.88;;;5.90;81.23
67840;BME280;54636;51.684;5.142;2023-03-26T18:42:50;101002.78;;;5.87;79.95
67840;BME280;54636;51.684;5.142;2023-03-26T18:47:52;100990.69;;;5.91;80.19
67840;BME280;54636;51.684;5.142;2023-03-26T18:50:22;101023.22;;;5.97;81.25
67840;BME280;54636;51.684;5.142;2023-03-26T18:52:49;101037.00;;;5.99;80.36
67840;BME280;54636;51.684;5.142;2023-03-26T18:55:15;101034.00;;;5.97;78.87
67840;BME280;54636;51.684;5.142;2023-03-26T18:57:41;101048.56;;;6.00;77.02